sensor_id;sensor_type;location;lat;lon;timestamp;P1;durP1;ratioP1;P2;durP2;ratioP2
16642;SDS011;8435;52.184;5.406;2022-09-13T00:02:20;3.85;;;3.55;;
16642;SDS011;8435;52.184;5.406;2022-09-13T00:04:47;4.30;;;3.90;;
16642;SDS011;8435;52.184;5.406;2022-09-13T00:07:14;4.15;;;3.85;;
16642;SDS011;8435;52.184;5.406;2022-09-13T00:09:42;3.92;;;3.63;;
16642;SDS011;8435;52.184;5.406;2022-09-13T00:12:09;3.97;;;3.70;;
16642;SDS011;8435;52.184;5.406;2022-09-13T00:14:36;4.30;;;4.00;;
16642;SDS011;8435;52.184;5.406;2022-09-13T00:17:02;3.85;;;3.55;;
16642;SDS011;8435;52.184;5.406;2022-09-13T00:19:30;3.95;;;3.65;;
16642;SDS011;8435;52.184;5.406;2022-09-13T00:21:59;3.47;;;3.28;;
16642;SDS011;8435;52.184;5.406;2022-09-13T00:24:25;4.18;;;3.88;;
16642;SDS011;8435;52.184;5.406;2022-09-13T00:26:54;3.92;;;3.63;;
16642;SDS011;8435;52.184;5.406;2022-09-13T00:29:20;4.43;;;4.13;;
16642;SDS011;8435;52.184;5.406;2022-09-13T00:31:47;5.15;;;4.70;;
16642;SDS011;8435;52.184;5.406;2022-09-13T00:34:14;4.47;;;3.95;;
16642;SDS011;8435;52.184;5.406;2022-09-13T00:36:41;4.35;;;4.05;;
16642;SDS011;8435;52.184;5.406;2022-09-13T00:39:08;4.45;;;4.10;;
16642;SDS011;8435;52.184;5.406;2022-09-13T00:41:35;4.72;;;4.32;;
16642;SDS011;8435;52.184;5.406;2022-09-13T00:44:04;4.43;;;4.13;;
16642;SDS011;8435;52.184;5.406;2022-09-13T00:46:52;4.63;;;4.30;;
16642;SDS011;8435;52.184;5.406;2022-09-13T00:49:19;4.70;;;4.40;;
16642;SDS011;8435;52.184;5.406;2022-09-13T00:51:49;4.88;;;4.57;;
16642;SDS011;8435;52.184;5.406;2022-09-13T00:54:20;4.68;;;4.32;;
16642;SDS011;8435;52.184;5.406;2022-09-13T00:56:53;4.00;;;3.80;;
16642;SDS011;8435;52.184;5.406;2022-09-13T00:59:25;4.60;;;4.20;;
16642;SDS011;8435;52.184;5.406;2022-09-13T01:01:56;4.75;;;4.40;;
16642;SDS011;8435;52.184;5.406;2022-09-13T01:04:24;4.97;;;4.57;;
16642;SDS011;8435;52.184;5.406;2022-09-13T01:06:53;4.70;;;4.40;;
16642;SDS011;8435;52.184;5.406;2022-09-13T01:09:24;4.68;;;4.38;;
16642;SDS011;8435;52.184;5.406;2022-09-13T01:11:52;5.07;;;4.68;;
16642;SDS011;8435;52.184;5.406;2022-09-13T01:14:28;5.38;;;4.90;;
16642;SDS011;8435;52.184;5.406;2022-09-13T01:16:57;6.28;;;5.68;;
16642;SDS011;8435;52.184;5.406;2022-09-13T01:19:23;5.78;;;5.25;;
16642;SDS011;8435;52.184;5.406;2022-09-13T01:25:03;7.13;;;6.53;;
16642;SDS011;8435;52.184;5.406;2022-09-13T01:27:54;6.70;;;5.90;;
16642;SDS011;8435;52.184;5.406;2022-09-13T01:30:40;6.70;;;6.10;;
16642;SDS011;8435;52.184;5.406;2022-09-13T01:33:23;7.53;;;6.93;;
16642;SDS011;8435;52.184;5.406;2022-09-13T01:39:08;8.05;;;7.35;;
16642;SDS011;8435;52.184;5.406;2022-09-13T01:44:31;9.10;;;8.40;;
16642;SDS011;8435;52.184;5.406;2022-09-13T01:47:14;8.60;;;7.80;;
16642;SDS011;8435;52.184;5.406;2022-09-13T01:49:52;8.65;;;7.95;;
16642;SDS011;8435;52.184;5.406;2022-09-13T01:52:26;7.95;;;7.20;;
16642;SDS011;8435;52.184;5.406;2022-09-13T01:55:01;8.77;;;7.88;;
16642;SDS011;8435;52.184;5.406;2022-09-13T01:57:34;8.68;;;7.90;;
16642;SDS011;8435;52.184;5.406;2022-09-13T02:00:07;9.55;;;8.65;;
16642;SDS011;8435;52.184;5.406;2022-09-13T02:02:38;8.65;;;7.95;;
16642;SDS011;8435;52.184;5.406;2022-09-13T02:05:09;8.60;;;7.90;;
16642;SDS011;8435;52.184;5.406;2022-09-13T02:07:40;9.60;;;8.77;;
16642;SDS011;8435;52.184;5.406;2022-09-13T02:10:14;9.18;;;8.48;;
16642;SDS011;8435;52.184;5.406;2022-09-13T02:12:47;9.23;;;8.48;;
16642;SDS011;8435;52.184;5.406;2022-09-13T02:15:17;9.18;;;8.35;;
16642;SDS011;8435;52.184;5.406;2022-09-13T02:17:51;8.23;;;7.53;;
16642;SDS011;8435;52.184;5.406;2022-09-13T02:20:26;7.97;;;7.28;;
16642;SDS011;8435;52.184;5.406;2022-09-13T02:22:57;7.57;;;6.88;;
16642;SDS011;8435;52.184;5.406;2022-09-13T02:25:29;8.70;;;7.80;;
16642;SDS011;8435;52.184;5.406;2022-09-13T02:27:59;8.82;;;8.05;;
16642;SDS011;8435;52.184;5.406;2022-09-13T02:30:31;8.27;;;7.57;;
16642;SDS011;8435;52.184;5.406;2022-09-13T02:33:06;8.75;;;8.05;;
16642;SDS011;8435;52.184;5.406;2022-09-13T02:35:41;8.80;;;8.00;;
16642;SDS011;8435;52.184;5.406;2022-09-13T02:38:15;7.97;;;7.30;;
16642;SDS011;8435;52.184;5.406;2022-09-13T02:40:48;8.88;;;7.97;;
16642;SDS011;8435;52.184;5.406;2022-09-13T02:43:21;7.65;;;7.05;;
16642;SDS011;8435;52.184;5.406;2022-09-13T02:45:59;7.38;;;6.82;;
16642;SDS011;8435;52.184;5.406;2022-09-13T02:48:42;9.13;;;8.32;;
16642;SDS011;8435;52.184;5.406;2022-09-13T02:51:17;7.95;;;7.25;;
16642;SDS011;8435;52.184;5.406;2022-09-13T02:53:52;8.82;;;8.13;;
16642;SDS011;8435;52.184;5.406;2022-09-13T02:56:28;8.20;;;7.50;;
16642;SDS011;8435;52.184;5.406;2022-09-13T02:59:03;8.43;;;7.57;;
16642;SDS011;8435;52.184;5.406;2022-09-13T03:01:36;8.40;;;7.55;;
16642;SDS011;8435;52.184;5.406;2022-09-13T03:04:09;8.27;;;7.55;;
16642;SDS011;8435;52.184;5.406;2022-09-13T03:06:36;7.72;;;7.13;;
16642;SDS011;8435;52.184;5.406;2022-09-13T03:09:03;8.07;;;7.28;;
16642;SDS011;8435;52.184;5.406;2022-09-13T03:11:35;8.43;;;7.72;;
16642;SDS011;8435;52.184;5.406;2022-09-13T03:14:19;7.40;;;6.80;;
16642;SDS011;8435;52.184;5.406;2022-09-13T03:17:02;7.47;;;6.85;;
16642;SDS011;8435;52.184;5.406;2022-09-13T03:19:42;7.60;;;6.85;;
16642;SDS011;8435;52.184;5.406;2022-09-13T03:22:34;8.32;;;7.65;;
16642;SDS011;8435;52.184;5.406;2022-09-13T03:25:36;8.10;;;7.38;;
16642;SDS011;8435;52.184;5.406;2022-09-13T03:28:15;8.43;;;7.63;;
16642;SDS011;8435;52.184;5.406;2022-09-13T03:30:49;9.65;;;8.70;;
16642;SDS011;8435;52.184;5.406;2022-09-13T03:33:23;8.38;;;7.68;;
16642;SDS011;8435;52.184;5.406;2022-09-13T03:36:00;9.32;;;8.52;;
16642;SDS011;8435;52.184;5.406;2022-09-13T03:38:35;8.93;;;8.13;;
16642;SDS011;8435;52.184;5.406;2022-09-13T03:41:06;7.38;;;6.78;;
16642;SDS011;8435;52.184;5.406;2022-09-13T03:43:37;8.98;;;8.13;;
16642;SDS011;8435;52.184;5.406;2022-09-13T03:46:11;8.48;;;7.78;;
16642;SDS011;8435;52.184;5.406;2022-09-13T03:48:42;8.95;;;8.18;;
16642;SDS011;8435;52.184;5.406;2022-09-13T03:51:11;9.57;;;8.75;;
16642;SDS011;8435;52.184;5.406;2022-09-13T03:53:40;9.70;;;8.82;;
16642;SDS011;8435;52.184;5.406;2022-09-13T03:56:17;9.57;;;8.68;;
16642;SDS011;8435;52.184;5.406;2022-09-13T03:58:45;9.00;;;8.20;;
16642;SDS011;8435;52.184;5.406;2022-09-13T04:01:13;9.02;;;8.25;;
16642;SDS011;8435;52.184;5.406;2022-09-13T04:03:43;9.38;;;8.43;;
16642;SDS011;8435;52.184;5.406;2022-09-13T04:06:11;10.25;;;9.25;;
16642;SDS011;8435;52.184;5.406;2022-09-13T04:08:40;9.63;;;8.82;;
16642;SDS011;8435;52.184;5.406;2022-09-13T04:11:07;9.48;;;8.57;;
16642;SDS011;8435;52.184;5.406;2022-09-13T04:13:34;9.35;;;8.65;;
16642;SDS011;8435;52.184;5.406;2022-09-13T04:16:03;9.75;;;8.88;;
16642;SDS011;8435;52.184;5.406;2022-09-13T04:18:31;10.02;;;9.15;;
16642;SDS011;8435;52.184;5.406;2022-09-13T04:20:59;9.93;;;9.00;;
16642;SDS011;8435;52.184;5.406;2022-09-13T04:23:30;9.30;;;8.48;;
16642;SDS011;8435;52.184;5.406;2022-09-13T04:26:00;9.88;;;9.07;;
16642;SDS011;8435;52.184;5.406;2022-09-13T04:28:27;9.77;;;8.88;;
16642;SDS011;8435;52.184;5.406;2022-09-13T04:30:55;9.55;;;8.65;;
16642;SDS011;8435;52.184;5.406;2022-09-13T04:33:21;9.52;;;8.63;;
16642;SDS011;8435;52.184;5.406;2022-09-13T04:35:52;9.73;;;8.90;;
16642;SDS011;8435;52.184;5.406;2022-09-13T04:38:22;10.70;;;9.63;;
16642;SDS011;8435;52.184;5.406;2022-09-13T04:40:53;9.77;;;8.88;;
16642;SDS011;8435;52.184;5.406;2022-09-13T04:43:20;10.68;;;9.68;;
16642;SDS011;8435;52.184;5.406;2022-09-13T04:45:47;10.32;;;9.35;;
16642;SDS011;8435;52.184;5.406;2022-09-13T04:48:14;9.38;;;8.52;;
16642;SDS011;8435;52.184;5.406;2022-09-13T04:50:42;9.93;;;9.02;;
16642;SDS011;8435;52.184;5.406;2022-09-13T04:53:09;10.27;;;9.38;;
16642;SDS011;8435;52.184;5.406;2022-09-13T04:55:37;11.02;;;10.00;;
16642;SDS011;8435;52.184;5.406;2022-09-13T04:58:05;10.88;;;9.88;;
16642;SDS011;8435;52.184;5.406;2022-09-13T05:00:32;10.18;;;9.20;;
16642;SDS011;8435;52.184;5.406;2022-09-13T05:02:59;10.52;;;9.48;;
16642;SDS011;8435;52.184;5.406;2022-09-13T05:05:26;10.23;;;9.32;;
16642;SDS011;8435;52.184;5.406;2022-09-13T05:07:57;11.32;;;10.32;;
16642;SDS011;8435;52.184;5.406;2022-09-13T05:10:23;10.38;;;9.45;;
16642;SDS011;8435;52.184;5.406;2022-09-13T05:12:51;9.85;;;8.85;;
16642;SDS011;8435;52.184;5.406;2022-09-13T05:15:19;11.65;;;10.55;;
16642;SDS011;8435;52.184;5.406;2022-09-13T05:17:46;11.23;;;10.15;;
16642;SDS011;8435;52.184;5.406;2022-09-13T05:20:13;10.85;;;9.85;;
16642;SDS011;8435;52.184;5.406;2022-09-13T05:22:40;10.93;;;9.77;;
16642;SDS011;8435;52.184;5.406;2022-09-13T05:25:07;11.02;;;9.93;;
16642;SDS011;8435;52.184;5.406;2022-09-13T05:27:34;12.02;;;10.95;;
16642;SDS011;8435;52.184;5.406;2022-09-13T05:30:01;11.80;;;10.70;;
16642;SDS011;8435;52.184;5.406;2022-09-13T05:32:31;11.00;;;9.90;;
16642;SDS011;8435;52.184;5.406;2022-09-13T05:34:58;13.57;;;12.35;;
16642;SDS011;8435;52.184;5.406;2022-09-13T05:37:25;14.15;;;12.85;;
16642;SDS011;8435;52.184;5.406;2022-09-13T05:39:51;13.07;;;11.98;;
16642;SDS011;8435;52.184;5.406;2022-09-13T05:42:18;12.80;;;11.57;;
16642;SDS011;8435;52.184;5.406;2022-09-13T05:44:45;12.63;;;11.43;;
16642;SDS011;8435;52.184;5.406;2022-09-13T05:47:12;12.30;;;11.20;;
16642;SDS011;8435;52.184;5.406;2022-09-13T05:49:40;12.23;;;11.02;;
16642;SDS011;8435;52.184;5.406;2022-09-13T05:52:07;12.68;;;11.48;;
16642;SDS011;8435;52.184;5.406;2022-09-13T05:54:34;12.70;;;11.60;;
16642;SDS011;8435;52.184;5.406;2022-09-13T05:57:01;12.63;;;11.43;;
16642;SDS011;8435;52.184;5.406;2022-09-13T05:59:27;14.52;;;13.10;;
16642;SDS011;8435;52.184;5.406;2022-09-13T06:01:55;14.75;;;13.35;;
16642;SDS011;8435;52.184;5.406;2022-09-13T06:04:22;13.13;;;11.93;;
16642;SDS011;8435;52.184;5.406;2022-09-13T06:06:52;12.05;;;10.77;;
16642;SDS011;8435;52.184;5.406;2022-09-13T06:09:19;13.00;;;11.65;;
16642;SDS011;8435;52.184;5.406;2022-09-13T06:11:46;11.75;;;10.60;;
16642;SDS011;8435;52.184;5.406;2022-09-13T06:14:16;15.20;;;12.57;;
16642;SDS011;8435;52.184;5.406;2022-09-13T06:16:42;15.52;;;13.43;;
16642;SDS011;8435;52.184;5.406;2022-09-13T06:19:09;14.40;;;13.10;;
16642;SDS011;8435;52.184;5.406;2022-09-13T06:21:39;15.35;;;13.82;;
16642;SDS011;8435;52.184;5.406;2022-09-13T06:24:08;16.58;;;14.88;;
16642;SDS011;8435;52.184;5.406;2022-09-13T06:26:34;16.63;;;14.93;;
16642;SDS011;8435;52.184;5.406;2022-09-13T06:29:01;15.85;;;14.23;;
16642;SDS011;8435;52.184;5.406;2022-09-13T06:31:28;16.52;;;14.82;;
16642;SDS011;8435;52.184;5.406;2022-09-13T06:33:56;19.48;;;16.92;;
16642;SDS011;8435;52.184;5.406;2022-09-13T06:36:24;17.98;;;16.20;;
16642;SDS011;8435;52.184;5.406;2022-09-13T06:38:51;18.85;;;16.55;;
16642;SDS011;8435;52.184;5.406;2022-09-13T06:41:20;22.35;;;16.90;;
16642;SDS011;8435;52.184;5.406;2022-09-13T06:43:51;21.60;;;17.05;;
16642;SDS011;8435;52.184;5.406;2022-09-13T06:46:19;18.95;;;16.83;;
16642;SDS011;8435;52.184;5.406;2022-09-13T06:48:46;20.58;;;18.38;;
16642;SDS011;8435;52.184;5.406;2022-09-13T06:51:14;20.30;;;17.02;;
16642;SDS011;8435;52.184;5.406;2022-09-13T06:53:42;20.05;;;18.02;;
16642;SDS011;8435;52.184;5.406;2022-09-13T06:56:11;20.70;;;18.60;;
16642;SDS011;8435;52.184;5.406;2022-09-13T06:58:42;20.92;;;18.83;;
16642;SDS011;8435;52.184;5.406;2022-09-13T07:01:11;22.33;;;19.92;;
16642;SDS011;8435;52.184;5.406;2022-09-13T07:03:40;19.98;;;17.83;;
16642;SDS011;8435;52.184;5.406;2022-09-13T07:06:09;20.52;;;18.48;;
16642;SDS011;8435;52.184;5.406;2022-09-13T07:08:38;20.05;;;18.02;;
16642;SDS011;8435;52.184;5.406;2022-09-13T07:11:05;21.25;;;18.95;;
16642;SDS011;8435;52.184;5.406;2022-09-13T07:13:33;22.33;;;20.05;;
16642;SDS011;8435;52.184;5.406;2022-09-13T07:16:02;18.15;;;16.25;;
16642;SDS011;8435;52.184;5.406;2022-09-13T07:18:31;19.20;;;17.25;;
16642;SDS011;8435;52.184;5.406;2022-09-13T07:20:58;19.48;;;16.98;;
16642;SDS011;8435;52.184;5.406;2022-09-13T07:23:26;18.92;;;16.92;;
16642;SDS011;8435;52.184;5.406;2022-09-13T07:25:53;17.83;;;15.93;;
16642;SDS011;8435;52.184;5.406;2022-09-13T07:28:26;18.98;;;15.48;;
16642;SDS011;8435;52.184;5.406;2022-09-13T07:30:54;17.08;;;15.45;;
16642;SDS011;8435;52.184;5.406;2022-09-13T07:33:24;16.73;;;15.18;;
16642;SDS011;8435;52.184;5.406;2022-09-13T07:35:54;14.85;;;13.32;;
16642;SDS011;8435;52.184;5.406;2022-09-13T07:38:22;15.43;;;12.43;;
16642;SDS011;8435;52.184;5.406;2022-09-13T07:40:52;12.73;;;11.52;;
16642;SDS011;8435;52.184;5.406;2022-09-13T07:43:21;11.25;;;10.07;;
16642;SDS011;8435;52.184;5.406;2022-09-13T07:45:54;10.65;;;9.63;;
16642;SDS011;8435;52.184;5.406;2022-09-13T07:48:23;11.30;;;10.25;;
16642;SDS011;8435;52.184;5.406;2022-09-13T07:50:56;12.00;;;10.45;;
16642;SDS011;8435;52.184;5.406;2022-09-13T07:53:23;10.65;;;9.73;;
16642;SDS011;8435;52.184;5.406;2022-09-13T07:55:50;10.80;;;8.85;;
16642;SDS011;8435;52.184;5.406;2022-09-13T07:58:17;10.57;;;9.48;;
16642;SDS011;8435;52.184;5.406;2022-09-13T08:00:45;6.95;;;6.25;;
16642;SDS011;8435;52.184;5.406;2022-09-13T08:03:14;5.50;;;5.10;;
16642;SDS011;8435;52.184;5.406;2022-09-13T08:05:42;6.63;;;5.25;;
16642;SDS011;8435;52.184;5.406;2022-09-13T08:08:09;5.07;;;4.25;;
16642;SDS011;8435;52.184;5.406;2022-09-13T08:10:36;4.57;;;4.18;;
16642;SDS011;8435;52.184;5.406;2022-09-13T08:13:03;4.72;;;4.30;;
16642;SDS011;8435;52.184;5.406;2022-09-13T08:15:30;3.88;;;3.58;;
16642;SDS011;8435;52.184;5.406;2022-09-13T08:17:56;3.72;;;3.42;;
16642;SDS011;8435;52.184;5.406;2022-09-13T08:20:23;4.13;;;3.80;;
16642;SDS011;8435;52.184;5.406;2022-09-13T08:22:53;3.78;;;3.22;;
16642;SDS011;8435;52.184;5.406;2022-09-13T08:25:20;3.13;;;2.85;;
16642;SDS011;8435;52.184;5.406;2022-09-13T08:27:47;3.28;;;2.60;;
16642;SDS011;8435;52.184;5.406;2022-09-13T08:30:16;3.83;;;3.15;;
16642;SDS011;8435;52.184;5.406;2022-09-13T08:32:43;3.47;;;3.08;;
16642;SDS011;8435;52.184;5.406;2022-09-13T08:35:10;3.05;;;2.65;;
16642;SDS011;8435;52.184;5.406;2022-09-13T08:37:36;3.22;;;2.90;;
16642;SDS011;8435;52.184;5.406;2022-09-13T08:40:05;2.90;;;2.60;;
16642;SDS011;8435;52.184;5.406;2022-09-13T08:42:38;2.47;;;2.20;;
16642;SDS011;8435;52.184;5.406;2022-09-13T08:45:14;3.17;;;2.05;;
16642;SDS011;8435;52.184;5.406;2022-09-13T08:47:45;1.58;;;1.40;;
16642;SDS011;8435;52.184;5.406;2022-09-13T08:50:16;1.30;;;1.20;;
16642;SDS011;8435;52.184;5.406;2022-09-13T08:52:50;1.58;;;1.30;;
16642;SDS011;8435;52.184;5.406;2022-09-13T08:55:30;1.95;;;1.58;;
16642;SDS011;8435;52.184;5.406;2022-09-13T08:58:13;2.47;;;1.65;;
16642;SDS011;8435;52.184;5.406;2022-09-13T09:00:53;1.50;;;1.15;;
16642;SDS011;8435;52.184;5.406;2022-09-13T09:03:29;1.95;;;1.30;;
16642;SDS011;8435;52.184;5.406;2022-09-13T09:06:07;1.65;;;1.15;;
16642;SDS011;8435;52.184;5.406;2022-09-13T09:08:40;3.40;;;1.40;;
16642;SDS011;8435;52.184;5.406;2022-09-13T09:11:18;1.25;;;1.15;;
16642;SDS011;8435;52.184;5.406;2022-09-13T09:13:51;1.40;;;1.25;;
16642;SDS011;8435;52.184;5.406;2022-09-13T09:16:26;0.98;;;0.95;;
16642;SDS011;8435;52.184;5.406;2022-09-13T09:19:00;1.02;;;1.00;;
16642;SDS011;8435;52.184;5.406;2022-09-13T09:21:36;2.17;;;1.40;;
16642;SDS011;8435;52.184;5.406;2022-09-13T09:24:04;1.40;;;1.30;;
16642;SDS011;8435;52.184;5.406;2022-09-13T09:26:33;2.88;;;1.40;;
16642;SDS011;8435;52.184;5.406;2022-09-13T09:29:00;3.13;;;1.10;;
16642;SDS011;8435;52.184;5.406;2022-09-13T09:31:38;2.03;;;1.25;;
16642;SDS011;8435;52.184;5.406;2022-09-13T09:34:17;3.10;;;1.10;;
16642;SDS011;8435;52.184;5.406;2022-09-13T09:36:53;1.27;;;1.17;;
16642;SDS011;8435;52.184;5.406;2022-09-13T09:39:26;1.33;;;1.10;;
16642;SDS011;8435;52.184;5.406;2022-09-13T09:41:58;1.20;;;1.00;;
16642;SDS011;8435;52.184;5.406;2022-09-13T09:44:28;2.65;;;1.27;;
16642;SDS011;8435;52.184;5.406;2022-09-13T09:46:58;1.65;;;1.00;;
16642;SDS011;8435;52.184;5.406;2022-09-13T09:49:31;1.13;;;0.93;;
16642;SDS011;8435;52.184;5.406;2022-09-13T09:52:22;3.15;;;1.15;;
16642;SDS011;8435;52.184;5.406;2022-09-13T09:54:58;1.30;;;1.02;;
16642;SDS011;8435;52.184;5.406;2022-09-13T10:00:19;2.25;;;0.95;;
16642;SDS011;8435;52.184;5.406;2022-09-13T10:02:48;2.42;;;1.08;;
16642;SDS011;8435;52.184;5.406;2022-09-13T10:05:19;1.10;;;0.90;;
16642;SDS011;8435;52.184;5.406;2022-09-13T10:07:51;1.08;;;1.00;;
16642;SDS011;8435;52.184;5.406;2022-09-13T10:10:20;1.95;;;0.88;;
16642;SDS011;8435;52.184;5.406;2022-09-13T10:12:53;2.25;;;1.20;;
16642;SDS011;8435;52.184;5.406;2022-09-13T10:15:22;2.40;;;1.50;;
16642;SDS011;8435;52.184;5.406;2022-09-13T10:18:00;2.40;;;1.10;;
16642;SDS011;8435;52.184;5.406;2022-09-13T10:20:29;1.35;;;0.98;;
16642;SDS011;8435;52.184;5.406;2022-09-13T10:23:19;2.45;;;1.40;;
16642;SDS011;8435;52.184;5.406;2022-09-13T10:25:56;4.82;;;1.13;;
16642;SDS011;8435;52.184;5.406;2022-09-13T10:28:29;1.92;;;1.25;;
16642;SDS011;8435;52.184;5.406;2022-09-13T10:31:00;3.13;;;1.23;;
16642;SDS011;8435;52.184;5.406;2022-09-13T10:33:29;1.55;;;1.00;;
16642;SDS011;8435;52.184;5.406;2022-09-13T10:35:59;2.88;;;1.30;;
16642;SDS011;8435;52.184;5.406;2022-09-13T10:38:30;2.28;;;1.02;;
16642;SDS011;8435;52.184;5.406;2022-09-13T10:40:58;1.35;;;1.10;;
16642;SDS011;8435;52.184;5.406;2022-09-13T10:43:31;1.85;;;1.20;;
16642;SDS011;8435;52.184;5.406;2022-09-13T10:45:59;1.70;;;1.30;;
16642;SDS011;8435;52.184;5.406;2022-09-13T10:48:29;1.50;;;1.00;;
16642;SDS011;8435;52.184;5.406;2022-09-13T10:51:14;1.25;;;1.05;;
16642;SDS011;8435;52.184;5.406;2022-09-13T10:53:46;2.05;;;1.20;;
16642;SDS011;8435;52.184;5.406;2022-09-13T10:56:18;4.43;;;1.48;;
16642;SDS011;8435;52.184;5.406;2022-09-13T10:58:47;1.38;;;1.20;;
16642;SDS011;8435;52.184;5.406;2022-09-13T11:07:28;2.95;;;1.50;;
16642;SDS011;8435;52.184;5.406;2022-09-13T11:10:06;3.03;;;1.58;;
16642;SDS011;8435;52.184;5.406;2022-09-13T11:12:42;1.88;;;1.45;;
16642;SDS011;8435;52.184;5.406;2022-09-13T11:15:24;2.13;;;1.33;;
16642;SDS011;8435;52.184;5.406;2022-09-13T11:18:01;1.48;;;1.27;;
16642;SDS011;8435;52.184;5.406;2022-09-13T11:21:01;1.60;;;1.10;;
16642;SDS011;8435;52.184;5.406;2022-09-13T11:23:41;3.42;;;1.30;;
16642;SDS011;8435;52.184;5.406;2022-09-13T11:26:24;1.42;;;0.95;;
16642;SDS011;8435;52.184;5.406;2022-09-13T11:29:01;1.45;;;1.10;;
16642;SDS011;8435;52.184;5.406;2022-09-13T11:31:40;1.40;;;1.30;;
16642;SDS011;8435;52.184;5.406;2022-09-13T11:34:20;2.22;;;1.20;;
16642;SDS011;8435;52.184;5.406;2022-09-13T11:37:01;1.17;;;1.00;;
16642;SDS011;8435;52.184;5.406;2022-09-13T11:39:36;1.00;;;1.00;;
16642;SDS011;8435;52.184;5.406;2022-09-13T11:42:09;1.23;;;1.00;;
16642;SDS011;8435;52.184;5.406;2022-09-13T11:44:50;1.42;;;1.25;;
16642;SDS011;8435;52.184;5.406;2022-09-13T11:47:43;1.77;;;1.00;;
16642;SDS011;8435;52.184;5.406;2022-09-13T11:50:22;2.58;;;1.10;;
16642;SDS011;8435;52.184;5.406;2022-09-13T11:52:58;1.27;;;1.02;;
16642;SDS011;8435;52.184;5.406;2022-09-13T11:55:37;1.75;;;1.27;;
16642;SDS011;8435;52.184;5.406;2022-09-13T11:58:10;2.60;;;1.27;;
16642;SDS011;8435;52.184;5.406;2022-09-13T12:00:42;1.33;;;1.23;;
16642;SDS011;8435;52.184;5.406;2022-09-13T12:03:16;2.53;;;1.48;;
16642;SDS011;8435;52.184;5.406;2022-09-13T12:05:50;2.17;;;1.63;;
16642;SDS011;8435;52.184;5.406;2022-09-13T12:08:20;1.10;;;1.10;;
16642;SDS011;8435;52.184;5.406;2022-09-13T12:10:50;1.35;;;1.20;;
16642;SDS011;8435;52.184;5.406;2022-09-13T12:13:20;7.35;;;1.20;;
16642;SDS011;8435;52.184;5.406;2022-09-13T12:15:50;4.20;;;1.50;;
16642;SDS011;8435;52.184;5.406;2022-09-13T12:18:22;2.35;;;1.00;;
16642;SDS011;8435;52.184;5.406;2022-09-13T12:20:52;2.42;;;1.10;;
16642;SDS011;8435;52.184;5.406;2022-09-13T12:23:24;1.83;;;1.23;;
16642;SDS011;8435;52.184;5.406;2022-09-13T12:25:56;2.13;;;0.98;;
16642;SDS011;8435;52.184;5.406;2022-09-13T12:28:26;2.13;;;1.17;;
16642;SDS011;8435;52.184;5.406;2022-09-13T12:31:00;1.77;;;0.90;;
16642;SDS011;8435;52.184;5.406;2022-09-13T12:33:31;3.00;;;1.10;;
16642;SDS011;8435;52.184;5.406;2022-09-13T12:41:54;1.27;;;1.15;;
16642;SDS011;8435;52.184;5.406;2022-09-13T12:44:45;3.95;;;1.08;;
16642;SDS011;8435;52.184;5.406;2022-09-13T12:47:28;1.10;;;1.00;;
16642;SDS011;8435;52.184;5.406;2022-09-13T12:50:19;0.80;;;0.80;;
16642;SDS011;8435;52.184;5.406;2022-09-13T12:53:08;2.60;;;0.98;;
16642;SDS011;8435;52.184;5.406;2022-09-13T12:55:56;1.55;;;0.90;;
16642;SDS011;8435;52.184;5.406;2022-09-13T13:01:29;1.25;;;1.13;;
16642;SDS011;8435;52.184;5.406;2022-09-13T13:03:58;2.38;;;1.05;;
16642;SDS011;8435;52.184;5.406;2022-09-13T13:06:31;1.60;;;0.85;;
16642;SDS011;8435;52.184;5.406;2022-09-13T13:09:02;1.13;;;1.00;;
16642;SDS011;8435;52.184;5.406;2022-09-13T13:11:40;1.25;;;0.70;;
16642;SDS011;8435;52.184;5.406;2022-09-13T13:14:25;1.92;;;0.85;;
16642;SDS011;8435;52.184;5.406;2022-09-13T13:19:54;1.20;;;0.88;;
16642;SDS011;8435;52.184;5.406;2022-09-13T13:25:32;2.58;;;1.20;;
16642;SDS011;8435;52.184;5.406;2022-09-13T13:28:03;1.13;;;0.90;;
16642;SDS011;8435;52.184;5.406;2022-09-13T13:30:49;1.58;;;0.98;;
16642;SDS011;8435;52.184;5.406;2022-09-13T13:33:26;1.92;;;1.00;;
16642;SDS011;8435;52.184;5.406;2022-09-13T13:35:55;0.82;;;0.65;;
16642;SDS011;8435;52.184;5.406;2022-09-13T13:50:28;1.67;;;0.70;;
16642;SDS011;8435;52.184;5.406;2022-09-13T13:52:56;2.05;;;1.10;;
16642;SDS011;8435;52.184;5.406;2022-09-13T13:55:44;1.67;;;0.75;;
16642;SDS011;8435;52.184;5.406;2022-09-13T13:58:24;1.92;;;1.00;;
16642;SDS011;8435;52.184;5.406;2022-09-13T14:00:58;1.05;;;0.60;;
16642;SDS011;8435;52.184;5.406;2022-09-13T14:03:29;1.23;;;0.93;;
16642;SDS011;8435;52.184;5.406;2022-09-13T14:06:09;1.70;;;0.75;;
16642;SDS011;8435;52.184;5.406;2022-09-13T14:08:45;1.42;;;0.60;;
16642;SDS011;8435;52.184;5.406;2022-09-13T14:11:26;2.67;;;0.90;;
16642;SDS011;8435;52.184;5.406;2022-09-13T14:14:11;2.40;;;0.90;;
16642;SDS011;8435;52.184;5.406;2022-09-13T14:16:53;2.22;;;0.80;;
16642;SDS011;8435;52.184;5.406;2022-09-13T14:19:27;0.98;;;0.60;;
16642;SDS011;8435;52.184;5.406;2022-09-13T14:22:05;1.58;;;0.88;;
16642;SDS011;8435;52.184;5.406;2022-09-13T14:24:40;1.02;;;0.50;;
16642;SDS011;8435;52.184;5.406;2022-09-13T14:27:15;0.70;;;0.70;;
16642;SDS011;8435;52.184;5.406;2022-09-13T14:29:45;1.38;;;0.70;;
16642;SDS011;8435;52.184;5.406;2022-09-13T14:32:18;2.63;;;0.80;;
16642;SDS011;8435;52.184;5.406;2022-09-13T14:34:50;0.95;;;0.73;;
16642;SDS011;8435;52.184;5.406;2022-09-13T14:37:23;2.50;;;0.82;;
16642;SDS011;8435;52.184;5.406;2022-09-13T14:39:57;1.67;;;0.90;;
16642;SDS011;8435;52.184;5.406;2022-09-13T14:42:37;2.25;;;0.98;;
16642;SDS011;8435;52.184;5.406;2022-09-13T14:45:11;2.30;;;0.90;;
16642;SDS011;8435;52.184;5.406;2022-09-13T14:47:42;1.63;;;1.08;;
16642;SDS011;8435;52.184;5.406;2022-09-13T14:50:16;1.40;;;0.82;;
16642;SDS011;8435;52.184;5.406;2022-09-13T14:52:46;2.95;;;1.00;;
16642;SDS011;8435;52.184;5.406;2022-09-13T14:55:17;1.08;;;0.60;;
16642;SDS011;8435;52.184;5.406;2022-09-13T14:57:52;0.55;;;0.40;;
16642;SDS011;8435;52.184;5.406;2022-09-13T15:00:23;1.30;;;0.68;;
16642;SDS011;8435;52.184;5.406;2022-09-13T15:02:52;2.08;;;0.70;;
16642;SDS011;8435;52.184;5.406;2022-09-13T15:05:21;1.10;;;0.40;;
16642;SDS011;8435;52.184;5.406;2022-09-13T15:07:50;1.77;;;0.90;;
16642;SDS011;8435;52.184;5.406;2022-09-13T15:10:21;3.70;;;0.80;;
16642;SDS011;8435;52.184;5.406;2022-09-13T15:12:55;3.55;;;1.08;;
16642;SDS011;8435;52.184;5.406;2022-09-13T15:15:34;1.42;;;0.90;;
16642;SDS011;8435;52.184;5.406;2022-09-13T15:18:03;4.90;;;1.02;;
16642;SDS011;8435;52.184;5.406;2022-09-13T15:20:45;1.30;;;0.70;;
16642;SDS011;8435;52.184;5.406;2022-09-13T15:23:15;1.70;;;0.70;;
16642;SDS011;8435;52.184;5.406;2022-09-13T15:25:47;2.63;;;0.75;;
16642;SDS011;8435;52.184;5.406;2022-09-13T15:28:22;1.00;;;0.75;;
16642;SDS011;8435;52.184;5.406;2022-09-13T15:30:50;1.85;;;1.02;;
16642;SDS011;8435;52.184;5.406;2022-09-13T15:33:22;2.63;;;1.02;;
16642;SDS011;8435;52.184;5.406;2022-09-13T15:35:51;2.05;;;1.08;;
16642;SDS011;8435;52.184;5.406;2022-09-13T15:38:53;2.65;;;0.70;;
16642;SDS011;8435;52.184;5.406;2022-09-13T15:41:26;2.20;;;0.90;;
16642;SDS011;8435;52.184;5.406;2022-09-13T15:43:56;2.03;;;0.80;;
16642;SDS011;8435;52.184;5.406;2022-09-13T15:46:24;1.73;;;0.70;;
16642;SDS011;8435;52.184;5.406;2022-09-13T15:48:52;3.25;;;0.85;;
16642;SDS011;8435;52.184;5.406;2022-09-13T15:51:20;3.25;;;1.10;;
16642;SDS011;8435;52.184;5.406;2022-09-13T15:53:47;3.78;;;1.15;;
16642;SDS011;8435;52.184;5.406;2022-09-13T15:56:16;1.85;;;0.70;;
16642;SDS011;8435;52.184;5.406;2022-09-13T15:58:44;2.28;;;0.90;;
16642;SDS011;8435;52.184;5.406;2022-09-13T16:01:13;3.63;;;1.10;;
16642;SDS011;8435;52.184;5.406;2022-09-13T16:03:41;3.95;;;0.93;;
16642;SDS011;8435;52.184;5.406;2022-09-13T16:06:08;2.13;;;0.80;;
16642;SDS011;8435;52.184;5.406;2022-09-13T16:08:35;1.67;;;0.82;;
16642;SDS011;8435;52.184;5.406;2022-09-13T16:11:02;6.20;;;1.10;;